Terminal Aerodrome Forecast
Issued by NWS Atlanta, GA

Current Version | Previous Version | Text Only | Print | Product List | Glossary On
Versions: 1 2 3 4 5 6 7 8 9 10 11 12 13 14 15 16 17 18 19 20 21 22 23 24 25
000
FTUS42 KFFC 251737
TAFMCN
TAF
KMCN 251737Z 2518/2618 33005KT P6SM VCSH SCT035 BKN070
     FM252000 34004KT P6SM -RA SCT025 OVC050
     FM260200 34007KT 5SM -RA BR SCT012 OVC025
     FM261000 35008KT 4SM -RA BR SCT007 OVC020
     FM261400 31008KT P6SM BKN035
     FM261600 30009KT P6SM SCT250=

USA.gov is the U.S. government's official web portal to all federal, state and local government web resources and services.